Terminal Aerodrome Forecast
Issued by NWS

Home | Current Version | Previous Version | Text Only | Print | Product List | Glossary On
Versions: 1 2 3 4 5 6 7 8 9 10 11 12 13 14
000
FTUS46 KLOX 012300
TAFPRB
TAF
KPRB 012339Z 0200/0224 33008KT P6SM SCT250
      TEMPO 0200/0203 32012G19KT
     FM020300 32015G22KT P6SM SKC
     FM021000 VRB04KT P6SM SKC
     FM021600 35006KT P6SM SKC
     FM022100 30012KT P6SM SKC=

USA.gov is the U.S. government's official web portal to all federal, state and local government web resources and services.